Pakpattan Weather



Pakpattan's Current Weather

Temprature 18.67o clear sky

clear sky

Rain: 0 %

Min Temprature18.67o
Max Temprature18.67o
Humidity26
Wind Speed1.5 m/h
Sun Rise06:17:41
Sun Set17:22:32
Current Time: 28-Oct-2020 05:13:37
Lat/Lon: 30.34, 73.39




Pakpattan's Geo Location



Pakpattan's Weather Forecast

Time Overall Temp Min Temp Max Temp Humidity Wind Speed Rain
28-Oct-2020 (Wed)
08:00:00 clear sky 20.800 20.800 23.120 23 2 m/h 0 %
11:00:00 clear sky 28.980 28.980 31.840 15 3.45 m/h 0 %
14:00:00 clear sky 32.950 32.950 33.930 11 2.33 m/h 0 %
17:00:00 clear sky 29.190 29.190 29.280 13 2.24 m/h 0 %
20:00:00 clear sky 23.600 23.600 23.600 19 3.23 m/h 0 %
23:00:00 clear sky 21.120 21.120 21.120 22 1.5 m/h 0 %
29-Oct-2020 (Thu)
02:00:00 clear sky 19.170 19.170 19.170 25 1.37 m/h 0 %
05:00:00 clear sky 18.200 18.200 18.200 26 1.84 m/h 0 %
08:00:00 clear sky 23.050 23.050 23.050 19 2.65 m/h 0 %
11:00:00 clear sky 32.390 32.390 32.390 12 4.2 m/h 0 %
14:00:00 clear sky 34.510 34.510 34.510 10 3.48 m/h 0 %
17:00:00 clear sky 29.720 29.720 29.720 14 2.38 m/h 0 %
20:00:00 clear sky 23.180 23.180 23.180 20 1.63 m/h 0 %
23:00:00 clear sky 21.110 21.110 21.110 23 1.83 m/h 0 %
30-Oct-2020 (Fri)
02:00:00 clear sky 19.670 19.670 19.670 25 1.66 m/h 0 %
05:00:00 clear sky 18.080 18.080 18.080 27 1.56 m/h 0 %
08:00:00 clear sky 22.380 22.380 22.380 21 1.52 m/h 0 %
11:00:00 clear sky 31.410 31.410 31.410 12 2.09 m/h 0 %
14:00:00 clear sky 34.190 34.190 34.190 10 3.57 m/h 0 %
17:00:00 clear sky 29.000 29.000 29.000 13 3.07 m/h 0 %
20:00:00 clear sky 23.310 23.310 23.310 19 3.07 m/h 0 %
23:00:00 clear sky 20.910 20.910 20.910 22 2.52 m/h 0 %
31-Oct-2020 (Sat)
02:00:00 clear sky 18.800 18.800 18.800 25 2.32 m/h 0 %
05:00:00 clear sky 17.280 17.280 17.280 27 2.23 m/h 0 %
08:00:00 clear sky 21.580 21.580 21.580 20 0.43 m/h 0 %
11:00:00 clear sky 31.330 31.330 31.330 11 1.96 m/h 0 %
14:00:00 clear sky 33.880 33.880 33.880 10 3.94 m/h 0 %
17:00:00 clear sky 28.410 28.410 28.410 13 2.11 m/h 0 %
20:00:00 clear sky 22.560 22.560 22.560 19 2.52 m/h 0 %
23:00:00 clear sky 19.800 19.800 19.800 23 2.21 m/h 0 %
01-Nov-2020 (Sun)
02:00:00 clear sky 17.630 17.630 17.630 25 0.46 m/h 0 %
05:00:00 clear sky 16.610 16.610 16.610 27 0.33 m/h 0 %
08:00:00 clear sky 22.640 22.640 22.640 18 0.64 m/h 0 %
11:00:00 clear sky 32.580 32.580 32.580 10 0.64 m/h 0 %
14:00:00 clear sky 33.720 33.720 33.720 9 2.95 m/h 0 %
17:00:00 clear sky 28.170 28.170 28.170 13 1.81 m/h 0 %
20:00:00 clear sky 21.910 21.910 21.910 19 1.82 m/h 0 %
23:00:00 clear sky 19.240 19.240 19.240 22 1 m/h 0 %
02-Nov-2020 (Mon)
02:00:00 clear sky 17.630 17.630 17.630 25 0.37 m/h 0 %
05:00:00 clear sky 17.540 17.540 17.540 25 2.23 m/h 0 %

Famous Cities (60)